createdAt,value
2024-01-16T00:00:58.450Z,50.66
2024-01-16T00:01:58.410Z,50.66
2024-01-16T00:02:58.342Z,50.66
2024-01-16T00:03:58.360Z,50.66
2024-01-16T00:04:58.331Z,50.66
2024-01-16T00:05:58.445Z,50.66
2024-01-16T00:06:58.376Z,50.66
2024-01-16T00:07:58.292Z,50.66
2024-01-16T00:08:58.293Z,50.66
2024-01-16T00:09:58.288Z,50.66
2024-01-16T00:10:58.260Z,50.66
2024-01-16T00:11:58.237Z,50.66
2024-01-16T00:12:58.232Z,50.66
2024-01-16T00:13:58.213Z,50.66
2024-01-16T00:14:58.222Z,50.66
2024-01-16T00:15:58.207Z,50.66
2024-01-16T00:16:58.183Z,50.66
2024-01-16T00:17:58.257Z,50.66
2024-01-16T00:18:58.197Z,50.66
2024-01-16T00:19:58.160Z,50.66
2024-01-16T00:20:58.149Z,50.66
2024-01-16T00:21:58.145Z,50.66
2024-01-16T00:22:58.122Z,50.66
2024-01-16T00:23:58.118Z,50.66
2024-01-16T00:24:58.115Z,50.66
2024-01-16T00:25:58.132Z,50.66
2024-01-16T00:26:58.068Z,50.66
2024-01-16T00:27:58.080Z,50.66
2024-01-16T00:28:58.067Z,50.66
2024-01-16T00:29:58.034Z,50.66
2024-01-16T00:30:58.037Z,50.66
2024-01-16T00:31:58.016Z,50.66
2024-01-16T00:32:58.105Z,50.66
2024-01-16T00:33:58.126Z,50.66
2024-01-16T00:34:57.996Z,50.66
2024-01-16T00:35:58.019Z,50.66
2024-01-16T00:36:57.983Z,50.66
2024-01-16T00:37:57.975Z,50.66
2024-01-16T00:38:57.964Z,50.66
2024-01-16T00:39:57.950Z,50.66
2024-01-16T00:40:57.941Z,50.66
2024-01-16T00:41:57.942Z,50.66
2024-01-16T00:42:57.918Z,50.66
2024-01-16T00:43:57.914Z,50.66
2024-01-16T00:44:57.903Z,50.66
2024-01-16T00:45:57.955Z,50.66
2024-01-16T00:46:57.881Z,50.66
2024-01-16T00:47:58.088Z,50.66
2024-01-16T00:48:57.925Z,50.66
2024-01-16T00:49:57.867Z,50.66
2024-01-16T00:50:57.848Z,50.66
2024-01-16T00:51:57.830Z,50.66
2024-01-16T00:52:57.817Z,50.66
2024-01-16T00:53:57.821Z,50.66
2024-01-16T00:54:57.809Z,50.66
2024-01-16T00:55:57.949Z,50.66
2024-01-16T00:56:57.821Z,50.66
2024-01-16T00:57:57.808Z,50.66
2024-01-16T00:58:57.815Z,50.66
2024-01-16T00:59:57.795Z,50.66
2024-01-16T01:00:57.805Z,50.66
2024-01-16T01:01:57.787Z,50.66
2024-01-16T01:02:57.781Z,50.66
2024-01-16T01:03:57.961Z,50.66
2024-01-16T01:04:57.769Z,50.66
2024-01-16T01:05:57.838Z,50.66
2024-01-16T01:06:57.723Z,50.66
2024-01-16T01:07:57.716Z,50.66
2024-01-16T01:08:57.697Z,50.66
2024-01-16T01:09:57.674Z,50.66
2024-01-16T01:10:57.701Z,50.66
2024-01-16T01:11:57.664Z,50.66
2024-01-16T01:12:57.655Z,50.66
2024-01-16T01:13:57.664Z,50.66
2024-01-16T01:14:57.721Z,50.66
2024-01-16T01:15:57.647Z,50.66
2024-01-16T01:16:57.618Z,50.66
2024-01-16T01:17:57.734Z,50.66
2024-01-16T01:18:57.665Z,50.66
2024-01-16T01:19:57.597Z,50.66
2024-01-16T01:20:57.632Z,50.66
2024-01-16T01:21:57.591Z,50.66
2024-01-16T01:22:57.556Z,50.66
2024-01-16T01:23:57.605Z,50.66
2024-01-16T01:24:57.534Z,50.66
2024-01-16T01:25:57.538Z,50.66
2024-01-16T01:26:57.508Z,50.66
2024-01-16T01:27:57.487Z,50.66
2024-01-16T01:28:57.473Z,50.66
2024-01-16T01:29:57.469Z,50.66
2024-01-16T01:30:57.500Z,50.66
2024-01-16T01:31:57.471Z,50.66
2024-01-16T01:32:57.518Z,50.66
2024-01-16T01:33:57.500Z,50.66
2024-01-16T01:34:57.401Z,50.66
2024-01-16T01:35:57.403Z,50.66
2024-01-16T01:36:57.373Z,50.66
2024-01-16T01:37:57.369Z,50.66
2024-01-16T01:38:57.343Z,50.66
2024-01-16T01:39:57.342Z,50.66
2024-01-16T01:40:57.317Z,50.66
2024-01-16T01:41:57.365Z,50.66
2024-01-16T01:42:57.292Z,50.66
2024-01-16T01:43:57.283Z,50.66
2024-01-16T01:44:57.314Z,50.66
2024-01-16T01:45:57.271Z,50.66
2024-01-16T01:46:57.253Z,50.66
2024-01-16T01:47:57.292Z,50.66
2024-01-16T01:48:57.286Z,50.66
2024-01-16T01:49:57.197Z,50.66
2024-01-16T01:50:57.180Z,50.66
2024-01-16T01:51:57.173Z,50.66
2024-01-16T01:52:57.162Z,50.66
2024-01-16T01:53:57.144Z,50.66
2024-01-16T01:54:57.135Z,50.66
2024-01-16T01:55:57.151Z,50.66
2024-01-16T01:56:57.117Z,50.66
2024-01-16T01:57:57.106Z,50.66
2024-01-16T01:58:57.086Z,50.66
2024-01-16T01:59:57.081Z,50.66
2024-01-16T02:00:57.090Z,50.66
2024-01-16T02:01:57.053Z,50.66
2024-01-16T02:02:57.115Z,50.66
2024-01-16T02:03:57.031Z,50.66
2024-01-16T02:04:57.052Z,50.66
2024-01-16T02:05:57.103Z,50.66
2024-01-16T02:06:56.993Z,50.66
2024-01-16T02:07:56.992Z,50.66
2024-01-16T02:08:56.972Z,50.66
2024-01-16T02:09:56.960Z,50.66
2024-01-16T02:10:56.958Z,50.66
2024-01-16T02:11:56.965Z,50.66
2024-01-16T02:12:56.930Z,50.66
2024-01-16T02:13:56.928Z,50.66
2024-01-16T02:14:56.921Z,50.66
2024-01-16T02:15:56.899Z,50.66
2024-01-16T02:16:56.890Z,50.66
2024-01-16T02:17:56.974Z,50.66
2024-01-16T02:18:56.895Z,50.66
2024-01-16T02:19:56.888Z,50.66
2024-01-16T02:20:56.837Z,50.66
2024-01-16T02:21:56.833Z,50.66
2024-01-16T02:22:56.820Z,50.66
2024-01-16T02:23:56.813Z,50.66
2024-01-16T02:24:56.797Z,50.66
2024-01-16T02:25:56.769Z,50.66
2024-01-16T02:26:56.798Z,50.66
2024-01-16T02:27:56.756Z,50.66
2024-01-16T02:28:56.735Z,50.66
2024-01-16T02:29:56.731Z,50.66
2024-01-16T02:30:56.780Z,50.66
2024-01-16T02:31:56.696Z,50.66
2024-01-16T02:32:56.753Z,50.66
2024-01-16T02:33:56.703Z,50.66
2024-01-16T02:34:56.657Z,50.66
2024-01-16T02:35:56.656Z,50.66
2024-01-16T02:36:56.661Z,50.66
2024-01-16T02:37:56.630Z,50.66
2024-01-16T02:38:56.668Z,50.66
2024-01-16T02:39:56.612Z,50.66
2024-01-16T02:40:56.611Z,50.66
2024-01-16T02:41:56.593Z,50.66
2024-01-16T02:42:56.578Z,50.66
2024-01-16T02:43:56.566Z,50.66
2024-01-16T02:44:56.605Z,50.66
2024-01-16T02:45:56.533Z,50.66
2024-01-16T02:46:56.535Z,50.66
2024-01-16T02:47:56.639Z,50.66
2024-01-16T02:48:56.555Z,50.66
2024-01-16T02:49:56.487Z,50.66
2024-01-16T02:50:56.535Z,50.66
2024-01-16T02:51:56.473Z,50.66
2024-01-16T02:52:56.451Z,50.66
2024-01-16T02:53:56.446Z,50.66
2024-01-16T02:54:56.435Z,50.66
2024-01-16T02:55:56.419Z,50.66
2024-01-16T02:56:56.451Z,50.66
2024-01-16T02:57:56.411Z,50.66
2024-01-16T02:58:56.396Z,50.66
2024-01-16T02:59:56.378Z,50.66
2024-01-16T03:00:56.420Z,50.66
2024-01-16T03:01:56.598Z,50.66
2024-01-16T03:02:56.415Z,50.66
2024-01-16T03:03:56.336Z,50.66
2024-01-16T03:04:56.324Z,50.66
2024-01-16T03:05:56.376Z,50.66
2024-01-16T03:06:56.416Z,50.66
2024-01-16T03:07:56.289Z,50.66
2024-01-16T03:08:56.320Z,50.66
2024-01-16T03:09:56.258Z,50.66
2024-01-16T03:10:56.243Z,50.66
2024-01-16T03:11:56.286Z,50.66
2024-01-16T03:12:56.224Z,50.66
2024-01-16T03:13:56.227Z,50.66
2024-01-16T03:14:56.217Z,50.66
2024-01-16T03:15:56.220Z,50.66
2024-01-16T03:16:56.186Z,50.66
2024-01-16T03:17:56.294Z,50.66
2024-01-16T03:18:56.304Z,50.66
2024-01-16T03:19:56.182Z,50.66
2024-01-16T03:20:56.253Z,50.66
2024-01-16T03:21:56.174Z,50.66
2024-01-16T03:22:56.153Z,50.66
2024-01-16T03:23:56.244Z,50.66
2024-01-16T03:24:56.147Z,50.66
2024-01-16T03:25:56.139Z,50.66
2024-01-16T03:26:56.178Z,50.66
2024-01-16T03:27:56.118Z,50.66
2024-01-16T03:28:56.106Z,50.66
2024-01-16T03:29:56.129Z,50.66
2024-01-16T03:30:56.416Z,50.66
2024-01-16T03:31:56.098Z,50.66
2024-01-16T03:32:56.117Z,50.66
2024-01-16T03:33:56.088Z,50.66
2024-01-16T03:34:56.034Z,50.66
2024-01-16T03:35:56.073Z,50.66
2024-01-16T03:36:56.005Z,50.66
2024-01-16T03:37:55.989Z,50.66
2024-01-16T03:38:56.034Z,50.66
2024-01-16T03:39:56.004Z,50.66
2024-01-16T03:40:55.965Z,50.66
2024-01-16T03:41:56.036Z,50.66
2024-01-16T03:42:55.972Z,50.66
2024-01-16T03:43:55.977Z,50.66
2024-01-16T03:44:55.972Z,50.66
2024-01-16T03:45:55.934Z,50.66
2024-01-16T03:46:55.932Z,50.66
2024-01-16T03:47:56.175Z,50.66
2024-01-16T03:48:56.032Z,50.66
2024-01-16T03:49:55.904Z,50.66
2024-01-16T03:50:55.925Z,50.66
2024-01-16T03:51:55.827Z,50.66
2024-01-16T03:52:55.902Z,50.66
2024-01-16T03:53:55.834Z,50.66
2024-01-16T03:54:55.811Z,50.66
2024-01-16T03:55:55.786Z,50.66
2024-01-16T03:56:55.854Z,50.66
2024-01-16T03:57:55.774Z,50.66
2024-01-16T03:58:55.765Z,50.66
2024-01-16T03:59:55.771Z,50.66
2024-01-16T04:00:55.770Z,50.66
2024-01-16T04:01:55.721Z,50.66
2024-01-16T04:02:55.776Z,50.66
2024-01-16T04:03:55.824Z,50.66
2024-01-16T04:04:55.722Z,50.66
2024-01-16T04:05:55.764Z,50.66
2024-01-16T04:06:55.683Z,50.66
2024-01-16T04:07:55.672Z,50.66
2024-01-16T04:08:55.695Z,50.66
2024-01-16T04:09:55.645Z,50.66
2024-01-16T04:10:55.639Z,50.66
2024-01-16T04:11:55.646Z,50.66
2024-01-16T04:12:55.633Z,50.66
2024-01-16T04:13:55.606Z,50.66
2024-01-16T04:14:55.602Z,50.66
2024-01-16T04:15:55.598Z,50.66
2024-01-16T04:16:55.586Z,50.66
2024-01-16T04:17:55.585Z,50.66
2024-01-16T04:18:55.683Z,50.66
2024-01-16T04:19:55.570Z,50.66
2024-01-16T04:20:55.611Z,50.66
2024-01-16T04:21:55.566Z,50.66
2024-01-16T04:22:55.536Z,50.66
2024-01-16T04:23:55.587Z,50.66
2024-01-16T04:24:55.521Z,50.66
2024-01-16T04:25:55.531Z,50.66
2024-01-16T04:27:02.792Z,38.19
2024-01-16T04:28:03.507Z,40.45
2024-01-16T04:29:02.784Z,41.82
2024-01-16T04:30:02.788Z,42.69
2024-01-16T04:31:09.992Z,43.43
2024-01-16T04:32:10.099Z,43.81
2024-01-16T04:33:10.102Z,44.07
2024-01-16T04:34:10.090Z,44.27
2024-01-16T04:35:10.133Z,44.46
2024-01-16T04:36:10.038Z,44.59
2024-01-16T04:37:10.039Z,44.69
2024-01-16T04:38:10.091Z,44.80
2024-01-16T04:39:10.073Z,44.88
2024-01-16T04:40:10.102Z,44.92
2024-01-16T04:41:10.081Z,44.97
2024-01-16T04:42:10.079Z,45.00
2024-01-16T04:43:10.087Z,45.04
2024-01-16T04:44:10.132Z,45.08
2024-01-16T04:45:10.105Z,45.12
2024-01-16T04:46:10.114Z,45.16
2024-01-16T04:47:10.175Z,45.20
2024-01-16T04:48:10.301Z,45.24
2024-01-16T04:49:10.193Z,45.25
2024-01-16T04:50:10.204Z,45.29
2024-01-16T04:51:10.173Z,45.28
2024-01-16T04:52:10.196Z,45.29
2024-01-16T04:53:10.205Z,45.35
2024-01-16T04:54:10.208Z,45.37
2024-01-16T04:55:10.228Z,45.39
2024-01-16T04:56:10.293Z,45.40
2024-01-16T04:57:10.263Z,45.42
2024-01-16T04:58:10.252Z,45.44
2024-01-16T04:59:10.321Z,45.45
2024-01-16T05:00:10.296Z,45.48
2024-01-16T05:01:10.357Z,45.51
2024-01-16T05:02:10.388Z,45.52
2024-01-16T05:03:10.333Z,45.55
2024-01-16T05:04:10.458Z,45.55
2024-01-16T05:05:10.461Z,45.57
2024-01-16T05:06:10.442Z,45.61
2024-01-16T05:07:10.378Z,45.60
2024-01-16T05:08:10.517Z,45.63
2024-01-16T05:09:10.385Z,45.65
2024-01-16T05:10:10.401Z,45.67
2024-01-16T05:11:10.414Z,45.70
2024-01-16T05:12:10.409Z,45.70
2024-01-16T05:13:10.406Z,45.70
2024-01-16T05:14:10.436Z,45.66
2024-01-16T05:15:10.432Z,45.67
2024-01-16T05:16:10.439Z,45.68
2024-01-16T05:17:10.471Z,45.68
2024-01-16T05:18:10.652Z,45.65
2024-01-16T05:19:10.541Z,45.69
2024-01-16T05:20:10.521Z,45.67
2024-01-16T05:21:10.570Z,45.68
2024-01-16T05:22:10.511Z,45.71
2024-01-16T05:23:10.574Z,45.73
2024-01-16T05:24:10.570Z,45.73
2024-01-16T05:25:10.592Z,45.74
2024-01-16T05:26:10.629Z,45.74
2024-01-16T05:27:10.661Z,45.74
2024-01-16T05:28:10.685Z,45.74
2024-01-16T05:29:10.755Z,45.75
2024-01-16T05:30:10.798Z,45.76
2024-01-16T05:31:10.889Z,45.73
2024-01-16T05:32:10.842Z,45.76
2024-01-16T05:33:10.971Z,45.76
2024-01-16T05:34:11.038Z,45.78
2024-01-16T05:35:11.040Z,45.80
2024-01-16T05:36:10.892Z,45.80
2024-01-16T05:37:10.907Z,45.78
2024-01-16T05:38:10.959Z,45.76
2024-01-16T05:39:10.963Z,45.71
2024-01-16T05:40:10.980Z,45.72
2024-01-16T05:41:11.024Z,45.72
2024-01-16T05:42:11.024Z,45.71
2024-01-16T05:43:11.077Z,45.74
2024-01-16T05:44:11.113Z,45.78
2024-01-16T05:45:11.131Z,45.80
2024-01-16T05:46:11.146Z,45.84
2024-01-16T05:47:11.229Z,45.81
2024-01-16T05:48:11.300Z,45.82
2024-01-16T05:49:11.327Z,45.82
2024-01-16T05:50:11.363Z,45.83
2024-01-16T05:51:11.346Z,45.81
2024-01-16T05:52:11.309Z,45.84
2024-01-16T05:53:11.390Z,45.86
2024-01-16T05:54:11.385Z,45.86
2024-01-16T05:55:11.408Z,45.90
2024-01-16T05:56:11.451Z,45.89
2024-01-16T05:57:11.469Z,45.88
2024-01-16T05:58:14.962Z,45.86
2024-01-16T05:59:11.539Z,45.85
2024-01-16T06:00:11.519Z,45.83
2024-01-16T06:01:11.542Z,45.81
2024-01-16T06:02:11.547Z,45.79
2024-01-16T06:03:11.576Z,45.75
2024-01-16T06:04:14.417Z,45.74
2024-01-16T06:05:11.654Z,45.73
2024-01-16T06:06:11.710Z,45.68
2024-01-16T06:07:11.584Z,45.68
2024-01-16T06:08:11.663Z,45.65
2024-01-16T06:09:11.605Z,45.64
2024-01-16T06:10:11.623Z,45.63
2024-01-16T06:11:14.383Z,45.64
2024-01-16T06:12:11.648Z,45.61
2024-01-16T06:13:11.663Z,45.59
2024-01-16T06:14:11.707Z,45.55
2024-01-16T06:15:11.690Z,45.56
2024-01-16T06:16:11.714Z,45.58
2024-01-16T06:17:11.738Z,45.57
2024-01-16T06:18:11.907Z,45.57
2024-01-16T06:19:11.815Z,45.57
2024-01-16T06:20:11.805Z,45.56
2024-01-16T06:21:11.768Z,45.58
2024-01-16T06:22:11.789Z,45.58
2024-01-16T06:23:11.836Z,45.61
2024-01-16T06:24:11.831Z,45.61
2024-01-16T06:25:11.839Z,45.61
2024-01-16T06:26:11.869Z,45.53
2024-01-16T06:27:11.865Z,45.52
2024-01-16T06:28:11.868Z,45.51
2024-01-16T06:29:21.418Z,45.54
2024-01-16T06:30:13.038Z,45.58
2024-01-16T06:31:11.943Z,45.64
2024-01-16T06:32:11.944Z,45.70
2024-01-16T06:33:11.986Z,45.79
2024-01-16T06:34:12.048Z,45.80
2024-01-16T06:35:11.977Z,45.85
2024-01-16T06:36:11.974Z,45.90
2024-01-16T06:37:11.990Z,45.90
2024-01-16T06:38:12.054Z,45.92
2024-01-16T06:39:12.019Z,45.93
2024-01-16T06:40:12.032Z,45.96
2024-01-16T06:41:12.069Z,45.98
2024-01-16T06:42:12.074Z,45.99
2024-01-16T06:43:12.084Z,46.01
2024-01-16T06:44:12.112Z,46.04
2024-01-16T06:45:12.110Z,46.06
2024-01-16T06:46:12.113Z,46.09
2024-01-16T06:47:12.156Z,46.10
2024-01-16T06:48:12.389Z,46.12
2024-01-16T06:49:12.258Z,46.09
2024-01-16T06:50:12.218Z,46.11
2024-01-16T06:51:12.188Z,46.11
2024-01-16T06:52:12.204Z,46.12
2024-01-16T06:53:13.740Z,46.12
2024-01-16T06:54:12.335Z,46.14
2024-01-16T06:55:12.361Z,46.15
2024-01-16T06:56:12.411Z,46.16
2024-01-16T06:57:12.421Z,46.14
2024-01-16T06:58:12.437Z,46.13
2024-01-16T06:59:12.552Z,46.10
2024-01-16T07:00:12.497Z,46.13
2024-01-16T07:01:12.633Z,46.14
2024-01-16T07:02:12.577Z,46.18
2024-01-16T07:03:12.561Z,46.19
2024-01-16T07:04:13.180Z,46.19
2024-01-16T07:05:12.711Z,46.21
2024-01-16T07:06:12.717Z,46.17
2024-01-16T07:07:13.628Z,46.20
2024-01-16T07:08:12.713Z,46.20
2024-01-16T07:09:12.705Z,46.15
2024-01-16T07:10:12.732Z,46.18
2024-01-16T07:11:12.852Z,46.14
2024-01-16T07:12:12.789Z,46.16
2024-01-16T07:13:12.824Z,46.14
2024-01-16T07:14:12.911Z,46.14
2024-01-16T07:15:12.853Z,46.15
2024-01-16T07:16:12.946Z,46.17
2024-01-16T07:17:12.978Z,46.14
2024-01-16T07:18:13.119Z,46.17
2024-01-16T07:19:13.197Z,46.18
2024-01-16T07:20:13.067Z,46.14
2024-01-16T07:21:13.041Z,46.23
2024-01-16T07:22:13.062Z,46.22
2024-01-16T07:23:13.106Z,46.23
2024-01-16T07:24:13.119Z,46.21
2024-01-16T07:25:13.146Z,46.22
2024-01-16T07:26:13.219Z,46.16
2024-01-16T07:27:13.208Z,46.08
2024-01-16T07:28:13.226Z,45.51
2024-01-16T07:29:13.333Z,38.37
2024-01-16T07:30:13.528Z,35.00
2024-01-16T07:31:13.410Z,32.80
2024-01-16T07:32:14.142Z,31.19
2024-01-16T07:33:13.688Z,37.49
2024-01-16T07:34:13.754Z,42.96
2024-01-16T07:35:13.762Z,42.07
2024-01-16T07:36:13.774Z,41.55
2024-01-16T07:37:13.812Z,40.99
2024-01-16T07:38:16.660Z,40.74
2024-01-16T07:39:13.921Z,40.46
2024-01-16T07:40:14.637Z,40.33
2024-01-16T07:41:14.007Z,40.28
2024-01-16T07:42:13.984Z,40.17
2024-01-16T07:43:14.009Z,40.22
2024-01-16T07:44:14.653Z,40.13
2024-01-16T07:45:14.076Z,40.16
2024-01-16T07:46:14.056Z,40.05
2024-01-16T07:47:14.114Z,39.91
2024-01-16T07:48:14.154Z,39.85
2024-01-16T07:49:14.143Z,39.89
2024-01-16T07:50:14.178Z,39.93
2024-01-16T07:51:14.151Z,39.86
2024-01-16T07:52:14.167Z,39.96
2024-01-16T07:53:14.184Z,40.03
2024-01-16T07:54:14.210Z,40.11
2024-01-16T07:55:14.196Z,40.25
2024-01-16T07:56:14.242Z,40.30
2024-01-16T07:57:14.228Z,40.37
2024-01-16T07:58:14.229Z,40.46
2024-01-16T07:59:14.238Z,40.64
2024-01-16T08:00:15.132Z,40.80
2024-01-16T08:01:14.395Z,40.99
2024-01-16T08:02:14.352Z,41.17
2024-01-16T08:03:14.437Z,41.31
2024-01-16T08:04:14.536Z,41.50
2024-01-16T08:05:14.621Z,41.65
2024-01-16T08:06:14.736Z,41.79
2024-01-16T08:07:14.683Z,41.97
2024-01-16T08:08:15.586Z,42.09
2024-01-16T08:09:14.864Z,42.23
2024-01-16T08:10:17.170Z,42.34
2024-01-16T08:11:14.915Z,42.49
2024-01-16T08:12:14.891Z,42.57
2024-01-16T08:13:14.906Z,42.70
2024-01-16T08:14:14.956Z,42.84
2024-01-16T08:15:14.935Z,42.96
2024-01-16T08:16:14.984Z,43.02
2024-01-16T08:17:14.989Z,42.99
2024-01-16T08:18:15.155Z,42.93
2024-01-16T08:19:15.075Z,43.01
2024-01-16T08:20:15.017Z,43.10
2024-01-16T08:21:15.005Z,43.15
2024-01-16T08:22:15.009Z,43.20
2024-01-16T08:23:15.134Z,43.11
2024-01-16T08:24:15.053Z,43.08
2024-01-16T08:25:15.593Z,43.04
2024-01-16T08:26:15.090Z,43.11
2024-01-16T08:27:15.109Z,43.17
2024-01-16T08:28:15.125Z,43.29
2024-01-16T08:29:15.149Z,43.38
2024-01-16T08:30:15.257Z,43.47
2024-01-16T08:31:15.134Z,43.57
2024-01-16T08:32:15.234Z,43.65
2024-01-16T08:33:16.845Z,43.69
2024-01-16T08:34:15.325Z,43.77
2024-01-16T08:35:15.351Z,43.80
2024-01-16T08:36:15.258Z,43.87
2024-01-16T08:37:16.231Z,43.95
2024-01-16T08:38:15.295Z,44.00
2024-01-16T08:39:15.257Z,44.00
2024-01-16T08:40:15.259Z,44.03
2024-01-16T08:41:15.296Z,44.05
2024-01-16T08:42:16.176Z,44.02
2024-01-16T08:43:15.284Z,44.11
2024-01-16T08:44:15.323Z,44.11
2024-01-16T08:45:15.308Z,44.12
2024-01-16T08:46:15.319Z,44.16
2024-01-16T08:47:15.385Z,44.20
2024-01-16T08:48:15.502Z,44.21
2024-01-16T08:49:18.797Z,44.18
2024-01-16T08:50:16.505Z,44.19
2024-01-16T08:51:16.316Z,44.12
2024-01-16T08:52:15.452Z,44.12
2024-01-16T08:53:15.515Z,44.15
2024-01-16T08:54:15.498Z,44.16
2024-01-16T08:55:15.500Z,44.16
2024-01-16T08:56:15.519Z,44.19
2024-01-16T08:57:17.849Z,44.20
2024-01-16T08:58:15.542Z,44.24
2024-01-16T08:59:15.557Z,44.26
2024-01-16T09:00:15.555Z,44.29
2024-01-16T09:01:15.604Z,44.30
2024-01-16T09:02:15.614Z,44.27
2024-01-16T09:03:15.602Z,44.31
2024-01-16T09:04:15.618Z,44.31
2024-01-16T09:05:15.686Z,44.34
2024-01-16T09:06:15.749Z,44.32
2024-01-16T09:07:15.804Z,44.34
2024-01-16T09:08:15.740Z,44.36
2024-01-16T09:09:15.693Z,44.36
2024-01-16T09:10:15.710Z,44.38
2024-01-16T09:11:15.747Z,44.40
2024-01-16T09:12:15.759Z,44.39
2024-01-16T09:13:15.784Z,44.37
2024-01-16T09:14:15.816Z,44.32
2024-01-16T09:15:15.800Z,44.20
2024-01-16T09:16:16.653Z,44.11
2024-01-16T09:17:15.857Z,44.11
2024-01-16T09:18:16.001Z,44.11
2024-01-16T09:19:15.923Z,44.16
2024-01-16T09:20:17.080Z,44.25
2024-01-16T09:21:15.875Z,44.28
2024-01-16T09:22:15.887Z,44.57
2024-01-16T09:23:15.896Z,44.68
2024-01-16T09:24:15.913Z,44.84
2024-01-16T09:25:15.910Z,45.12
2024-01-16T09:26:17.719Z,45.23
2024-01-16T09:27:15.931Z,45.19
2024-01-16T09:28:15.973Z,45.20
2024-01-16T09:29:16.019Z,45.42
2024-01-16T09:30:15.985Z,45.71
2024-01-16T09:31:16.624Z,45.79
2024-01-16T09:32:16.012Z,46.04
2024-01-16T09:33:16.077Z,46.24
2024-01-16T09:34:16.026Z,46.42
2024-01-16T09:35:16.057Z,46.57
2024-01-16T09:36:16.014Z,46.71
2024-01-16T09:37:16.014Z,46.82
2024-01-16T09:38:16.053Z,47.01
2024-01-16T09:39:19.026Z,47.16
2024-01-16T09:40:16.044Z,47.18
2024-01-16T09:41:16.095Z,47.32
2024-01-16T09:42:16.084Z,47.41
2024-01-16T09:43:16.070Z,47.47
2024-01-16T09:44:16.104Z,47.62
2024-01-16T09:45:16.065Z,47.74
2024-01-16T09:46:16.083Z,47.79
2024-01-16T09:47:16.088Z,47.85
2024-01-16T09:48:16.145Z,47.89
2024-01-16T09:49:16.175Z,47.98
2024-01-16T09:50:16.153Z,48.04
2024-01-16T09:51:16.085Z,48.05
2024-01-16T09:52:16.095Z,48.14
2024-01-16T09:53:16.109Z,48.27
2024-01-16T09:54:16.096Z,48.32
2024-01-16T09:55:16.071Z,48.49
2024-01-16T09:56:16.149Z,48.48
2024-01-16T09:57:16.084Z,48.70
2024-01-16T09:58:16.070Z,48.79
2024-01-16T09:59:16.159Z,48.93
2024-01-16T10:00:17.716Z,49.00
2024-01-16T10:01:16.103Z,49.07
2024-01-16T10:02:16.100Z,49.14
2024-01-16T10:03:16.061Z,49.23
2024-01-16T10:04:16.097Z,49.31
2024-01-16T10:05:16.161Z,49.41
2024-01-16T10:06:16.078Z,49.57
2024-01-16T10:07:16.617Z,49.59
2024-01-16T10:08:16.075Z,49.68
2024-01-16T10:09:16.068Z,49.79
2024-01-16T10:10:21.753Z,49.90
2024-01-16T10:11:17.636Z,49.93
2024-01-16T10:12:16.025Z,50.14
2024-01-16T10:13:16.020Z,50.17
2024-01-16T10:14:16.040Z,50.29
2024-01-16T10:15:16.009Z,50.31
2024-01-16T10:16:16.034Z,50.46
2024-01-16T10:17:17.330Z,50.76
2024-01-16T10:18:16.360Z,50.68
2024-01-16T10:19:16.012Z,50.78
2024-01-16T10:20:16.066Z,50.77
2024-01-16T10:21:15.986Z,50.94
2024-01-16T10:22:16.621Z,51.15
2024-01-16T10:23:16.000Z,51.15
2024-01-16T10:24:15.972Z,51.24
2024-01-16T10:25:16.710Z,51.34
2024-01-16T10:26:16.006Z,50.21
2024-01-16T10:27:16.617Z,46.51
2024-01-16T10:28:15.971Z,50.98
2024-01-16T10:29:17.154Z,51.66
2024-01-16T10:30:16.085Z,51.48
2024-01-16T10:31:16.102Z,51.26
2024-01-16T10:32:16.078Z,50.98
2024-01-16T10:33:16.312Z,50.75
2024-01-16T10:34:16.991Z,50.65
2024-01-16T10:35:16.704Z,50.58
2024-01-16T10:36:16.127Z,50.56
2024-01-16T10:37:16.146Z,50.53
2024-01-16T10:38:16.199Z,50.58
2024-01-16T10:39:16.186Z,50.57
2024-01-16T10:40:16.226Z,50.58
2024-01-16T10:41:16.310Z,50.68
2024-01-16T10:42:16.272Z,50.72
2024-01-16T10:43:16.272Z,50.77
2024-01-16T10:44:16.332Z,50.79
2024-01-16T10:45:16.298Z,50.84
2024-01-16T10:46:17.151Z,50.95
2024-01-16T10:47:18.248Z,50.98
2024-01-16T10:48:16.568Z,51.03
2024-01-16T10:49:16.317Z,51.03
2024-01-16T10:50:16.398Z,51.22
2024-01-16T10:51:16.618Z,51.26
2024-01-16T10:52:16.348Z,51.22
2024-01-16T10:53:16.402Z,51.50
2024-01-16T10:54:16.365Z,51.62
2024-01-16T10:55:16.366Z,51.52
2024-01-16T10:56:16.422Z,51.53
2024-01-16T10:57:16.408Z,51.70
2024-01-16T10:58:16.402Z,51.85
2024-01-16T10:59:23.255Z,51.82
2024-01-16T11:00:16.414Z,52.03
2024-01-16T11:01:16.511Z,52.25
2024-01-16T11:02:16.404Z,52.36
2024-01-16T11:03:16.353Z,52.41
2024-01-16T11:04:16.476Z,52.35
2024-01-16T11:05:16.460Z,52.58
2024-01-16T11:06:16.578Z,52.65
2024-01-16T11:07:16.317Z,52.59
2024-01-16T11:08:16.344Z,52.74
2024-01-16T11:09:16.295Z,52.90
2024-01-16T11:10:16.290Z,53.06
2024-01-16T11:11:16.373Z,53.27
2024-01-16T11:12:16.263Z,52.96
2024-01-16T11:13:16.255Z,52.83
2024-01-16T11:14:16.303Z,52.77
2024-01-16T11:15:17.267Z,52.69
2024-01-16T11:16:16.231Z,52.59
2024-01-16T11:17:16.279Z,52.60
2024-01-16T11:18:16.337Z,52.65
2024-01-16T11:19:31.399Z,52.67
2024-01-16T11:20:30.128Z,52.72
2024-01-16T11:21:18.204Z,52.69
2024-01-16T11:22:16.295Z,52.71
2024-01-16T11:23:16.197Z,52.75
2024-01-16T11:24:16.163Z,52.68
2024-01-16T11:25:16.219Z,52.61
2024-01-16T11:26:16.308Z,52.56
2024-01-16T11:27:16.113Z,52.56
2024-01-16T11:28:16.112Z,52.60
2024-01-16T11:29:16.131Z,52.56
2024-01-16T11:30:16.132Z,52.58
2024-01-16T11:31:16.102Z,52.60
2024-01-16T11:32:27.460Z,52.62
2024-01-16T11:33:17.316Z,52.60
2024-01-16T11:34:17.046Z,52.63
2024-01-16T11:35:16.296Z,52.60
2024-01-16T11:36:16.218Z,52.56
2024-01-16T11:37:16.233Z,52.58
2024-01-16T11:38:17.274Z,52.53
2024-01-16T11:39:16.372Z,52.52
2024-01-16T11:40:16.343Z,52.53
2024-01-16T11:41:17.118Z,52.49
2024-01-16T11:42:16.537Z,52.51
2024-01-16T11:43:16.382Z,52.44
2024-01-16T11:44:17.578Z,52.45
2024-01-16T11:45:16.390Z,52.44
2024-01-16T11:46:16.396Z,52.43
2024-01-16T11:47:16.467Z,52.42
2024-01-16T11:48:17.015Z,52.45
2024-01-16T11:49:16.416Z,52.45
2024-01-16T11:50:16.451Z,52.44
2024-01-16T11:51:16.372Z,52.46
2024-01-16T11:52:16.373Z,52.39
2024-01-16T11:53:17.218Z,52.40
2024-01-16T11:54:16.357Z,52.38
2024-01-16T11:55:16.380Z,52.37
2024-01-16T11:56:16.434Z,52.40
2024-01-16T11:57:16.386Z,52.34
2024-01-16T11:58:17.146Z,52.37
2024-01-16T11:59:16.454Z,52.32
2024-01-16T12:00:16.370Z,52.35
2024-01-16T12:01:16.395Z,52.33
2024-01-16T12:02:16.436Z,52.38
2024-01-16T12:03:28.279Z,52.37
2024-01-16T12:04:17.413Z,52.35
2024-01-16T12:05:16.526Z,52.37
2024-01-16T12:06:16.476Z,50.95
2024-01-16T12:07:16.437Z,45.51
2024-01-16T12:08:16.475Z,41.82
2024-01-16T12:09:16.418Z,41.06
2024-01-16T12:10:16.415Z,34.95
2024-01-16T12:11:16.504Z,32.75
2024-01-16T12:12:16.540Z,33.38
2024-01-16T12:13:16.476Z,31.29
2024-01-16T12:14:16.567Z,29.83
2024-01-16T12:15:16.577Z,29.96
2024-01-16T12:16:16.601Z,28.52
2024-01-16T12:17:16.730Z,28.89
2024-01-16T12:18:26.794Z,28.45
2024-01-16T12:19:17.932Z,26.67
2024-01-16T12:20:16.968Z,27.04
2024-01-16T12:21:17.415Z,26.39
2024-01-16T12:22:16.988Z,26.54
2024-01-16T12:23:17.034Z,26.00
2024-01-16T12:24:18.692Z,25.17
2024-01-16T12:25:17.143Z,24.53
2024-01-16T12:26:17.210Z,24.03
2024-01-16T12:27:17.252Z,24.32
2024-01-16T12:28:24.475Z,23.92
2024-01-16T12:29:18.385Z,22.98
2024-01-16T12:30:17.470Z,23.12
2024-01-16T12:31:17.498Z,23.05
2024-01-16T12:32:17.622Z,23.32
2024-01-16T12:33:17.780Z,23.47
2024-01-16T12:34:17.825Z,23.03
2024-01-16T12:35:17.835Z,22.70
2024-01-16T12:36:17.931Z,22.94
2024-01-16T12:37:17.923Z,23.05
2024-01-16T12:38:18.007Z,22.97
2024-01-16T12:39:18.049Z,22.96
2024-01-16T12:40:18.112Z,23.99
2024-01-16T12:41:23.846Z,24.17
2024-01-16T12:42:19.935Z,24.95
2024-01-16T12:43:18.318Z,25.55
2024-01-16T12:44:18.643Z,26.07
2024-01-16T12:45:18.507Z,26.61
2024-01-16T12:46:18.617Z,26.69
2024-01-16T12:47:18.686Z,26.97
2024-01-16T12:48:18.822Z,27.86
2024-01-16T12:49:18.935Z,28.50
2024-01-16T12:50:19.151Z,28.97
2024-01-16T12:51:18.908Z,28.83
2024-01-16T12:52:19.004Z,28.27
2024-01-16T12:53:19.169Z,27.83